| time (UTC) | temp C | wind direction | speed KPH | gust KPH | rain 1hr cm | rain 24hr cm | rain mn cm | humidity % | barometer mb |
| 20260507230024 | 13 | 159 | 1.6 | 3.2 | 0.00 | 0.13 | 0.00 | 85 | 1014.1 |
| 20260507225102 | 13 | 159 | 0.0 | 1.6 | 0.00 | 0.13 | 0.00 | 85 | 1014.2 |
| 20260507224019 | 13 | 155 | 3.2 | 3.2 | 0.00 | 0.13 | 0.00 | 84 | 1014.2 |
| 20260507223016 | 13 | 154 | 3.2 | 3.2 | 0.00 | 0.13 | 0.00 | 83 | 1014.2 |
| 20260507222033 | 14 | 146 | 3.2 | 3.2 | 0.00 | 0.13 | 0.00 | 82 | 1014.0 |
| 20260507221030 | 14 | 156 | 3.2 | 3.2 | 0.00 | 0.13 | 0.00 | 81 | 1014.0 |
| 20260507220047 | 15 | 125 | 1.6 | 1.6 | 0.00 | 0.13 | 0.13 | 79 | 1014.1 |
| 20260507215025 | 15 | 124 | 1.6 | 3.2 | 0.00 | 0.13 | 0.13 | 77 | 1014.0 |
| 20260507214022 | 16 | 105 | 1.6 | 1.6 | 0.00 | 0.13 | 0.13 | 75 | 1014.0 |
| 20260507213019 | 16 | 115 | 1.6 | 3.2 | 0.00 | 0.13 | 0.13 | 74 | 1014.1 |
| 20260507212016 | 16 | 161 | 0.0 | 1.6 | 0.00 | 0.13 | 0.13 | 75 | 1014.1 |
| 20260507211033 | 16 | 161 | 1.6 | 1.6 | 0.00 | 0.13 | 0.13 | 74 | 1014.1 |
| 20260507210031 | 16 | 163 | 1.6 | 3.2 | 0.00 | 0.13 | 0.13 | 75 | 1014.1 |
| 20260507205028 | 16 | 215 | 0.0 | 1.6 | 0.00 | 0.13 | 0.13 | 75 | 1014.0 |
| 20260507204027 | 16 | 194 | 1.6 | 3.2 | 0.00 | 0.13 | 0.13 | 76 | 1014.1 |
| 20260507203022 | 16 | 178 | 0.0 | 0.0 | 0.00 | 0.13 | 0.13 | 77 | 1014.1 |
| 20260507202020 | 16 | 178 | 0.0 | 0.0 | 0.00 | 0.13 | 0.13 | 76 | 1014.1 |
| 20260507201017 | 16 | 177 | 0.0 | 0.0 | 0.00 | 0.13 | 0.13 | 76 | 1013.9 |
| 20260507200034 | 16 | 177 | 0.0 | 1.6 | 0.00 | 0.13 | 0.13 | 74 | 1013.9 |
| 20260507195033 | 17 | 159 | 1.6 | 4.8 | 0.00 | 0.13 | 0.13 | 72 | 1014.0 |
| 20260507194028 | 17 | 159 | 1.6 | 3.2 | 0.00 | 0.13 | 0.13 | 72 | 1014.0 |
| 20260507193025 | 17 | 152 | 4.8 | 9.7 | 0.00 | 0.13 | 0.13 | 73 | 1013.9 |
| 20260507192042 | 17 | 128 | 1.6 | 9.7 | 0.00 | 0.13 | 0.13 | 72 | 1013.8 |
| 20260507191020 | 17 | 134 | 3.2 | 6.4 | 0.00 | 0.13 | 0.13 | 69 | 1013.8 |
| 20260507190017 | 18 | 120 | 1.6 | 6.4 | 0.00 | 0.13 | 0.13 | 67 | 1013.7 |
| 20260507185034 | 18 | 133 | 3.2 | 6.4 | 0.00 | 0.13 | 0.13 | 67 | 1013.8 |
| 20260507184051 | 18 | 101 | 3.2 | 6.4 | 0.00 | 0.13 | 0.13 | 66 | 1013.7 |
| 20260507183049 | 18 | 118 | 3.2 | 4.8 | 0.00 | 0.13 | 0.13 | 65 | 1013.5 |
| 20260507182026 | 18 | 137 | 1.6 | 4.8 | 0.00 | 0.13 | 0.13 | 66 | 1013.4 |
| 20260507181024 | 18 | 122 | 3.2 | 6.4 | 0.00 | 0.13 | 0.13 | 65 | 1013.4 |
| 20260507180022 | 19 | 119 | 3.2 | 4.8 | 0.00 | 0.13 | 0.13 | 65 | 1013.3 |
| 20260507175017 | 19 | 94 | 3.2 | 9.7 | 0.00 | 0.13 | 0.13 | 65 | 1013.1 |
| 20260507174035 | 19 | 117 | 4.8 | 14.5 | 0.00 | 0.13 | 0.13 | 64 | 1013.0 |
| 20260507173032 | 20 | 116 | 8.0 | 17.7 | 0.00 | 0.13 | 0.13 | 63 | 1012.9 |
| 20260507172029 | 20 | 114 | 6.4 | 12.9 | 0.00 | 0.13 | 0.13 | 64 | 1012.8 |
| 20260507171027 | 20 | 117 | 8.0 | 17.7 | 0.00 | 0.13 | 0.13 | 65 | 1012.7 |
| 20260507170024 | 20 | 101 | 9.7 | 24.1 | 0.00 | 0.13 | 0.13 | 64 | 1012.6 |
| 20260507165021 | 20 | 121 | 6.4 | 14.5 | 0.00 | 0.13 | 0.13 | 63 | 1012.7 |
| 20260507164038 | 20 | 109 | 9.7 | 20.9 | 0.00 | 0.13 | 0.13 | 61 | 1012.6 |
| 20260507163015 | 20 | 113 | 8.0 | 17.7 | 0.00 | 0.15 | 0.13 | 61 | 1012.7 |
| 20260507162033 | 20 | 111 | 9.7 | 17.7 | 0.00 | 0.18 | 0.13 | 60 | 1012.6 |
| 20260507161030 | 20 | 116 | 8.0 | 24.1 | 0.00 | 0.18 | 0.13 | 61 | 1012.7 |
| 20260507160027 | 20 | 100 | 9.7 | 24.1 | 0.00 | 0.18 | 0.13 | 62 | 1012.6 |
| 20260507155025 | 20 | 119 | 11.3 | 20.9 | 0.00 | 0.18 | 0.13 | 62 | 1012.6 |
| 20260507154022 | 20 | 95 | 12.9 | 25.7 | 0.00 | 0.18 | 0.13 | 62 | 1012.6 |
| 20260507153019 | 21 | 97 | 12.9 | 20.9 | 0.00 | 0.18 | 0.13 | 63 | 1012.6 |
| 20260507152016 | 20 | 128 | 8.0 | 20.9 | 0.00 | 0.18 | 0.13 | 64 | 1012.6 |
| 20260507151033 | 21 | 98 | 9.7 | 24.1 | 0.00 | 0.18 | 0.13 | 63 | 1012.6 |
| 20260507150030 | 21 | 106 | 11.3 | 25.7 | 0.00 | 0.18 | 0.13 | 65 | 1012.6 |
| 20260507145029 | 21 | 135 | 8.0 | 20.9 | 0.00 | 0.18 | 0.13 | 62 | 1012.6 |
| 20260507144025 | 20 | 123 | 9.7 | 22.5 | 0.00 | 0.18 | 0.13 | 64 | 1012.7 |
| 20260507143022 | 20 | 126 | 11.3 | 25.7 | 0.00 | 0.18 | 0.13 | 68 | 1012.8 |
| 20260507142019 | 20 | 88 | 11.3 | 22.5 | 0.00 | 0.18 | 0.13 | 71 | 1012.9 |
| 20260507141016 | 20 | 83 | 8.0 | 22.5 | 0.00 | 0.18 | 0.13 | 73 | 1012.7 |
| 20260507140034 | 20 | 116 | 9.7 | 22.5 | 0.00 | 0.18 | 0.13 | 71 | 1012.8 |
| 20260507135035 | 20 | 106 | 11.3 | 20.9 | 0.00 | 0.18 | 0.13 | 71 | 1012.8 |
| 20260507134028 | 20 | 116 | 11.3 | 24.1 | 0.00 | 0.18 | 0.13 | 72 | 1013.0 |
| 20260507133025 | 20 | 86 | 12.9 | 25.7 | 0.00 | 0.18 | 0.13 | 72 | 1013.0 |
| 20260507132022 | 19 | 101 | 9.7 | 17.7 | 0.00 | 0.18 | 0.13 | 75 | 1013.0 |
| 20260507131023 | 20 | 106 | 12.9 | 25.7 | 0.00 | 0.18 | 0.13 | 76 | 1013.1 |
| 20260507130016 | 20 | 105 | 9.7 | 17.7 | 0.00 | 0.18 | 0.13 | 74 | 1013.1 |
| 20260507125034 | 21 | 98 | 8.0 | 17.7 | 0.00 | 0.18 | 0.13 | 64 | 1013.0 |
| 20260507124031 | 20 | 88 | 8.0 | 17.7 | 0.00 | 0.18 | 0.13 | 64 | 1013.0 |
| 20260507123028 | 20 | 87 | 14.5 | 22.5 | 0.00 | 0.18 | 0.13 | 66 | 1012.9 |
| 20260507122025 | 21 | 83 | 11.3 | 24.1 | 0.00 | 0.18 | 0.13 | 62 | 1012.9 |
| 20260507121024 | 22 | 79 | 11.3 | 17.7 | 0.00 | 0.18 | 0.13 | 56 | 1012.8 |
| 20260507120039 | 23 | 88 | 6.4 | 16.1 | 0.00 | 0.18 | 0.13 | 53 | 1013.0 |
| 20260507115037 | 24 | 327 | 3.2 | 11.3 | 0.00 | 0.18 | 0.13 | 33 | 1013.0 |
| 20260507114034 | 23 | 298 | 4.8 | 14.5 | 0.00 | 0.18 | 0.13 | 33 | 1013.0 |
| 20260507113031 | 24 | 282 | 11.3 | 16.1 | 0.00 | 0.18 | 0.13 | 36 | 1012.9 |
| 20260507112028 | 24 | 216 | 6.4 | 14.5 | 0.00 | 0.18 | 0.13 | 42 | 1013.1 |
| 20260507111025 | 23 | 232 | 8.0 | 16.1 | 0.00 | 0.18 | 0.13 | 43 | 1013.1 |
| 20260507110042 | 23 | 270 | 8.0 | 14.5 | 0.00 | 0.18 | 0.13 | 45 | 1013.1 |
| 20260507105019 | 22 | 228 | 12.9 | 17.7 | 0.00 | 0.18 | 0.13 | 47 | 1013.3 |
| 20260507104016 | 22 | 252 | 9.7 | 20.9 | 0.00 | 0.18 | 0.13 | 46 | 1013.3 |
| 20260507103053 | 22 | 231 | 9.7 | 22.5 | 0.00 | 0.18 | 0.13 | 47 | 1013.4 |
| 20260507102031 | 22 | 249 | 9.7 | 16.1 | 0.00 | 0.18 | 0.13 | 49 | 1013.3 |
| 20260507101046 | 22 | 221 | 9.7 | 17.7 | 0.00 | 0.18 | 0.13 | 49 | 1013.3 |
| 20260507100023 | 22 | 238 | 11.3 | 24.1 | 0.00 | 0.18 | 0.13 | 48 | 1013.4 |
| 20260507095020 | 22 | 257 | 9.7 | 17.7 | 0.00 | 0.18 | 0.13 | 51 | 1013.6 |
| 20260507094022 | 21 | 255 | 9.7 | 17.7 | 0.00 | 0.18 | 0.13 | 52 | 1013.6 |
| 20260507093111 | 21 | 265 | 12.9 | 24.1 | 0.00 | 0.18 | 0.13 | 52 | 1013.7 |
| 20260507092021 | 21 | 284 | 8.0 | 16.1 | 0.00 | 0.18 | 0.13 | 56 | 1013.8 |
| 20260507091017 | 20 | 291 | 6.4 | 16.1 | 0.00 | 0.18 | 0.13 | 60 | 1013.7 |
| 20260507090034 | 19 | 302 | 6.4 | 14.5 | 0.00 | 0.18 | 0.13 | 63 | 1013.9 |
| 20260507085032 | 19 | 291 | 6.4 | 12.9 | 0.00 | 0.18 | 0.13 | 66 | 1013.8 |
| 20260507084049 | 19 | 306 | 8.0 | 14.5 | 0.00 | 0.18 | 0.13 | 67 | 1013.7 |
| 20260507083025 | 20 | 312 | 8.0 | 12.9 | 0.00 | 0.18 | 0.13 | 61 | 1013.6 |
| 20260507082024 | 21 | 300 | 9.7 | 20.9 | 0.00 | 0.18 | 0.13 | 57 | 1013.4 |
| 20260507081019 | 21 | 249 | 8.0 | 16.1 | 0.00 | 0.18 | 0.13 | 56 | 1013.4 |
| 20260507080016 | 21 | 232 | 3.2 | 4.8 | 0.00 | 0.18 | 0.13 | 59 | 1013.3 |
| 20260507075033 | 20 | 214 | 1.6 | 4.8 | 0.00 | 0.18 | 0.13 | 61 | 1013.4 |
| 20260507074042 | 21 | 256 | 3.2 | 9.7 | 0.00 | 0.18 | 0.13 | 60 | 1013.4 |
| 20260507073027 | 21 | 201 | 4.8 | 9.7 | 0.00 | 0.18 | 0.13 | 59 | 1013.4 |
| 20260507072024 | 20 | 211 | 4.8 | 6.4 | 0.00 | 0.18 | 0.13 | 62 | 1013.4 |
| 20260507071022 | 20 | 245 | 3.2 | 6.4 | 0.00 | 0.18 | 0.13 | 65 | 1013.3 |
| 20260507070019 | 20 | 214 | 3.2 | 6.4 | 0.00 | 0.18 | 0.13 | 68 | 1013.3 |
| 20260507065016 | 19 | 225 | 6.4 | 11.3 | 0.00 | 0.18 | 0.13 | 69 | 1013.2 |
| 20260507064038 | 18 | 227 | 1.6 | 3.2 | 0.00 | 0.20 | 0.13 | 79 | 1013.2 |
| 20260507063030 | 17 | 259 | 3.2 | 4.8 | 0.00 | 0.20 | 0.13 | 83 | 1013.1 |
| 20260507062027 | 17 | 289 | 4.8 | 6.4 | 0.00 | 0.20 | 0.13 | 82 | 1013.0 |
| 20260507061024 | 17 | 250 | 3.2 | 4.8 | 0.00 | 0.28 | 0.13 | 86 | 1013.1 |
| 20260507060023 | 16 | 261 | 1.6 | 3.2 | 0.00 | 0.33 | 0.13 | 88 | 1013.0 |
| 20260507055018 | 16 | 257 | 3.2 | 4.8 | 0.00 | 0.33 | 0.13 | 90 | 1013.2 |
| 20260507054036 | 16 | 275 | 3.2 | 3.2 | 0.00 | 0.33 | 0.13 | 89 | 1013.1 |
| 20260507053032 | 16 | 254 | 1.6 | 3.2 | 0.00 | 0.33 | 0.13 | 89 | 1013.0 |
| 20260507052029 | 15 | 222 | 0.0 | 1.6 | 0.00 | 0.33 | 0.13 | 90 | 1013.0 |
| 20260507051026 | 15 | 224 | 0.0 | 1.6 | 0.00 | 0.36 | 0.13 | 91 | 1012.9 |
| 20260507050104 | 15 | 230 | 1.6 | 3.2 | 0.00 | 0.36 | 0.13 | 92 | 1012.8 |
| 20260507045020 | 15 | 235 | 0.0 | 1.6 | 0.00 | 0.36 | 0.13 | 92 | 1012.7 |
| 20260507044018 | 15 | 235 | 0.0 | 1.6 | 0.00 | 0.36 | 0.13 | 92 | 1012.5 |
| 20260507043035 | 15 | 235 | 0.0 | 1.6 | 0.00 | 0.36 | 0.13 | 92 | 1012.4 |
| 20260507042032 | 15 | 0.0 | 0.0 | 0.00 | 0.36 | 0.13 | 91 | 1012.4 | |
| 20260507041049 | 15 | 235 | 0.0 | 0.0 | 0.03 | 0.36 | 0.13 | 91 | 1012.3 |
| 20260507040028 | 15 | 173 | 1.6 | 3.2 | 0.05 | 0.36 | 0.13 | 91 | 1012.2 |
| 20260507035023 | 15 | 143 | 1.6 | 4.8 | 0.08 | 0.36 | 0.13 | 90 | 1012.0 |
| 20260507034020 | 15 | 137 | 3.2 | 6.4 | 0.08 | 0.36 | 0.13 | 90 | 1012.0 |
| 20260507033017 | 15 | 136 | 3.2 | 4.8 | 0.08 | 0.36 | 0.13 | 89 | 1012.0 |
| 20260507032034 | 15 | 149 | 0.0 | 1.6 | 0.10 | 0.36 | 0.13 | 89 | 1012.1 |
| 20260507031032 | 16 | 138 | 3.2 | 3.2 | 0.08 | 0.33 | 0.10 | 87 | 1012.1 |
| 20260507030029 | 16 | 199 | 3.2 | 3.2 | 0.05 | 0.30 | 0.08 | 83 | 1012.0 |
| 20260507025026 | 16 | 181 | 3.2 | 4.8 | 0.05 | 0.28 | 0.05 | 85 | 1012.1 |
| 20260507024023 | 16 | 183 | 1.6 | 1.6 | 0.05 | 0.28 | 0.05 | 83 | 1011.9 |
| 20260507023041 | 16 | 255 | 1.6 | 3.2 | 0.05 | 0.28 | 0.05 | 81 | 1011.7 |
| 20260507022037 | 17 | 306 | 1.6 | 3.2 | 0.03 | 0.25 | 0.03 | 77 | 1011.4 |
| 20260507021034 | 17 | 309 | 3.2 | 4.8 | 0.03 | 0.25 | 0.03 | 77 | 1011.5 |
| 20260507020051 | 17 | 266 | 1.6 | 3.2 | 0.03 | 0.25 | 0.03 | 76 | 1011.7 |
| 20260507015050 | 16 | 244 | 1.6 | 3.2 | 0.00 | 0.23 | 0.00 | 78 | 1011.7 |
| 20260507014025 | 17 | 258 | 1.6 | 3.2 | 0.00 | 0.23 | 0.00 | 75 | 1011.7 |
| 20260507013023 | 17 | 276 | 3.2 | 6.4 | 0.00 | 0.23 | 0.00 | 76 | 1011.7 |
| 20260507012020 | 16 | 281 | 1.6 | 3.2 | 0.00 | 0.23 | 0.00 | 76 | 1011.5 |
| 20260507011017 | 17 | 282 | 1.6 | 3.2 | 0.00 | 0.23 | 0.00 | 76 | 1011.6 |
| 20260507010034 | 16 | 229 | 3.2 | 3.2 | 0.00 | 0.23 | 0.00 | 76 | 1011.5 |
| 20260507005031 | 16 | 123 | 0.0 | 1.6 | 0.00 | 0.23 | 0.00 | 77 | 1011.6 |
| 20260507004028 | 16 | 123 | 1.6 | 3.2 | 0.00 | 0.23 | 0.00 | 76 | 1011.5 |
| 20260507003027 | 17 | 150 | 3.2 | 3.2 | 0.00 | 0.23 | 0.00 | 74 | 1011.5 |
| 20260507002022 | 17 | 253 | 1.6 | 3.2 | 0.00 | 0.23 | 0.00 | 70 | 1011.7 |
| 20260507001019 | 17 | 225 | 1.6 | 4.8 | 0.00 | 0.23 | 0.00 | 69 | 1011.6 |
| 20260507000017 | 18 | 174 | 3.2 | 3.2 | 0.00 | 0.23 | 0.00 | 68 | 1011.7 |
| 20260506235034 | 18 | 104 | 1.6 | 3.2 | 0.00 | 0.23 | 0.00 | 68 | 1011.8 |
| 20260506234036 | 18 | 7 | 3.2 | 4.8 | 0.00 | 0.23 | 0.00 | 67 | 1011.7 |
| 20260506233028 | 18 | 274 | 1.6 | 3.2 | 0.00 | 0.23 | 0.00 | 67 | 1011.8 |
| 20260506232025 | 18 | 193 | 1.6 | 3.2 | 0.00 | 0.23 | 0.00 | 66 | 1011.6 |
| 20260506231022 | 18 | 222 | 1.6 | 4.8 | 0.00 | 0.23 | 0.00 | 65 | 1011.7 |